Time,TemperatureF,DewpointF,PressureIn,WindDirection,WindDirectionDegrees,WindSpeedMPH,WindSpeedGustMPH,Humidity,HourlyPrecipIn,Conditions,Clouds,dailyrainin,SoftwareType,DateUTC
2013-05-21 00:03:00,62.0,61.0,30.14,WSW,239,0.0,1.0,97,0.00,,,0.00,,2013-05-21 04:03:00,
2013-05-21 00:13:00,62.0,61.0,30.14,WSW,239,0.0,1.0,97,0.00,,,0.00,,2013-05-21 04:13:00,
2013-05-21 00:23:00,62.0,61.0,30.14,WSW,239,0.0,1.0,97,0.00,,,0.00,,2013-05-21 04:23:00,
2013-05-21 00:33:00,62.0,61.0,30.13,WSW,239,2.0,5.0,97,0.00,,,0.00,,2013-05-21 04:33:00,
2013-05-21 00:42:00,62.0,61.0,30.13,WSW,239,2.0,5.0,97,0.00,,,0.00,,2013-05-21 04:42:00,
2013-05-21 00:53:00,62.0,61.0,30.13,WSW,239,2.0,6.0,97,0.00,,,0.00,,2013-05-21 04:53:00,
2013-05-21 01:02:00,62.0,61.0,30.12,SW,227,0.0,8.0,98,0.00,,,0.00,,2013-05-21 05:02:00,
2013-05-21 01:12:00,62.0,61.0,30.12,SW,227,0.0,8.0,98,0.00,,,0.00,,2013-05-21 05:12:00,
2013-05-21 01:22:00,62.0,61.0,30.12,WSW,240,1.0,4.0,98,0.00,,,0.00,,2013-05-21 05:22:00,
2013-05-21 01:32:00,61.0,60.0,30.11,WSW,248,4.0,9.0,98,0.00,,,0.00,,2013-05-21 05:32:00,
2013-05-21 01:42:00,61.0,60.0,30.11,WSW,244,4.0,8.0,98,0.00,,,0.00,,2013-05-21 05:42:00,
2013-05-21 01:52:00,61.0,60.0,30.11,WSW,244,4.0,8.0,98,0.00,,,0.00,,2013-05-21 05:52:00,
2013-05-21 02:02:00,61.0,60.0,30.10,WSW,238,5.0,9.0,98,0.00,,,0.00,,2013-05-21 06:02:00,
2013-05-21 02:12:00,61.0,60.0,30.10,WSW,238,5.0,9.0,98,0.00,,,0.00,,2013-05-21 06:12:00,
2013-05-21 02:21:00,61.0,60.0,30.10,SW,236,5.0,7.0,98,0.00,,,0.00,,2013-05-21 06:21:00,
2013-05-21 02:32:00,61.0,60.0,30.10,WSW,238,5.0,9.0,98,0.00,,,0.00,,2013-05-21 06:32:00,
2013-05-21 02:42:00,61.0,60.0,30.10,WSW,238,5.0,9.0,98,0.00,,,0.00,,2013-05-21 06:42:00,
2013-05-21 02:52:00,61.0,60.0,30.10,WSW,243,2.0,12.0,98,0.00,,,0.00,,2013-05-21 06:52:00,
2013-05-21 03:01:00,61.0,60.0,30.09,SW,216,4.0,10.0,98,0.00,,,0.00,,2013-05-21 07:01:00,
2013-05-21 03:11:00,61.0,60.0,30.09,SW,216,4.0,10.0,98,0.00,,,0.00,,2013-05-21 07:11:00,
2013-05-21 03:22:00,61.0,61.0,30.09,WSW,245,2.0,8.0,99,0.00,,,0.00,,2013-05-21 07:22:00,
2013-05-21 03:31:00,60.0,60.0,30.09,WSW,240,3.0,8.0,99,0.00,,,0.00,,2013-05-21 07:31:00,
2013-05-21 03:41:00,60.0,60.0,30.09,WSW,240,3.0,8.0,99,0.00,,,0.00,,2013-05-21 07:41:00,
2013-05-21 03:52:00,60.0,60.0,30.10,WSW,244,1.0,6.0,99,0.00,,,0.00,,2013-05-21 07:52:00,
2013-05-21 04:02:00,60.0,60.0,30.09,WSW,247,1.0,5.0,99,0.00,,,0.00,,2013-05-21 08:02:00,
2013-05-21 04:11:00,60.0,60.0,30.09,West,261,0.0,5.0,99,0.00,,,0.00,,2013-05-21 08:11:00,
2013-05-21 04:21:00,60.0,60.0,30.09,West,261,0.0,5.0,99,0.00,,,0.00,,2013-05-21 08:21:00,
2013-05-21 04:31:00,60.0,60.0,30.09,West,263,1.0,5.0,99,0.00,,,0.00,,2013-05-21 08:31:00,
2013-05-21 04:41:00,60.0,60.0,30.08,WNW,302,2.0,6.0,99,0.00,,,0.00,,2013-05-21 08:41:00,
2013-05-21 04:52:00,60.0,60.0,30.08,WNW,302,2.0,6.0,99,0.00,,,0.00,,2013-05-21 08:52:00,
2013-05-21 05:01:00,61.0,60.0,30.08,WNW,288,1.0,7.0,98,0.00,,,0.00,,2013-05-21 09:01:00,
2013-05-21 05:11:00,61.0,60.0,30.08,WNW,288,1.0,7.0,98,0.00,,,0.00,,2013-05-21 09:11:00,
2013-05-21 05:21:00,61.0,60.0,30.09,WNW,282,0.0,6.0,95,0.00,,,0.00,,2013-05-21 09:21:00,
2013-05-21 05:33:00,61.0,59.0,30.09,NNW,348,0.0,9.0,94,0.00,,,0.00,,2013-05-21 09:33:00,
2013-05-21 05:42:00,61.0,59.0,30.09,NNW,348,0.0,9.0,94,0.00,,,0.00,,2013-05-21 09:42:00,
2013-05-21 05:53:00,61.0,59.0,30.09,NW,313,1.0,6.0,93,0.00,,,0.00,,2013-05-21 09:53:00,
2013-05-21 06:02:00,61.0,59.0,30.09,NW,319,2.0,5.0,93,0.00,,,0.00,,2013-05-21 10:02:00,
2013-05-21 06:12:00,61.0,59.0,30.09,NW,319,2.0,5.0,93,0.00,,,0.00,,2013-05-21 10:12:00,
2013-05-21 06:22:00,62.0,60.0,30.09,NNW,336,3.0,7.0,92,0.00,,,0.00,,2013-05-21 10:22:00,
2013-05-21 06:32:00,62.0,59.0,30.10,North,349,0.0,5.0,91,0.00,,,0.00,,2013-05-21 10:32:00,
2013-05-21 06:42:00,62.0,59.0,30.10,North,349,0.0,5.0,91,0.00,,,0.00,,2013-05-21 10:42:00,
2013-05-21 06:52:00,62.0,59.0,30.10,NW,310,1.0,5.0,90,0.00,,,0.00,,2013-05-21 10:52:00,
2013-05-21 07:02:00,62.0,59.0,30.11,NW,309,0.0,2.0,91,0.00,,,0.00,,2013-05-21 11:02:00,
2013-05-21 07:12:00,62.0,59.0,30.11,NW,309,0.0,2.0,91,0.00,,,0.00,,2013-05-21 11:12:00,
2013-05-21 07:22:00,62.0,59.0,30.11,NW,315,1.0,6.0,91,0.00,,,0.00,,2013-05-21 11:22:00,
2013-05-21 07:32:00,62.0,59.0,30.11,NW,311,0.0,5.0,90,0.00,,,0.00,,2013-05-21 11:32:00,
2013-05-21 07:42:00,62.0,59.0,30.11,NW,311,0.0,5.0,90,0.00,,,0.00,,2013-05-21 11:42:00,
2013-05-21 07:52:00,63.0,60.0,30.12,NW,320,0.0,6.0,90,0.00,,,0.00,,2013-05-21 11:52:00,
2013-05-21 08:01:00,64.0,60.0,30.12,NW,306,0.0,4.0,88,0.00,,,0.00,,2013-05-21 12:01:00,
2013-05-21 08:11:00,64.0,60.0,30.12,NW,306,0.0,4.0,88,0.00,,,0.00,,2013-05-21 12:11:00,
2013-05-21 08:21:00,65.0,61.0,30.12,NW,313,0.0,1.0,86,0.00,,,0.00,,2013-05-21 12:21:00,
2013-05-21 08:32:00,67.0,62.0,30.12,NW,313,0.0,1.0,84,0.00,,,0.00,,2013-05-21 12:32:00,
2013-05-21 08:42:00,67.0,62.0,30.12,NW,313,0.0,1.0,84,0.00,,,0.00,,2013-05-21 12:42:00,
2013-05-21 08:52:00,68.0,62.0,30.13,NW,315,0.0,0.0,81,0.00,,,0.00,,2013-05-21 12:52:00,
2013-05-21 09:01:00,69.0,63.0,30.14,NNE,20,0.0,1.0,80,0.00,,,0.00,,2013-05-21 13:01:00,
2013-05-21 09:12:00,69.0,63.0,30.14,NNE,20,0.0,1.0,80,0.00,,,0.00,,2013-05-21 13:12:00,
2013-05-21 09:22:00,70.0,63.0,30.14,NNE,23,0.0,2.0,79,0.00,,,0.00,,2013-05-21 13:22:00,
2013-05-21 09:32:00,71.0,63.0,30.14,ENE,62,0.0,2.0,75,0.00,,,0.00,,2013-05-21 13:32:00,
2013-05-21 09:42:00,71.0,63.0,30.14,ENE,62,0.0,2.0,75,0.00,,,0.00,,2013-05-21 13:42:00,
2013-05-21 09:52:00,72.0,64.0,30.15,NW,305,0.0,5.0,76,0.00,,,0.00,,2013-05-21 13:52:00,
2013-05-21 10:01:00,72.0,63.0,30.16,NW,319,0.0,3.0,74,0.00,,,0.00,,2013-05-21 14:01:00,
2013-05-21 10:11:00,72.0,63.0,30.16,NW,319,0.0,3.0,74,0.00,,,0.00,,2013-05-21 14:11:00,
2013-05-21 10:21:00,73.0,64.0,30.16,NNW,342,1.0,3.0,73,0.00,,,0.00,,2013-05-21 14:21:00,
2013-05-21 10:32:00,74.0,61.0,30.15,NE,40,0.0,3.0,65,0.00,,,0.00,,2013-05-21 14:32:00,
2013-05-21 10:42:00,74.0,61.0,30.15,NE,40,0.0,3.0,65,0.00,,,0.00,,2013-05-21 14:42:00,
2013-05-21 10:52:00,75.0,63.0,30.15,NW,310,0.0,2.0,67,0.00,,,0.00,,2013-05-21 14:52:00,
2013-05-21 11:01:00,76.0,62.0,30.15,West,280,0.0,4.0,62,0.00,,,0.00,,2013-05-21 15:01:00,
2013-05-21 11:11:00,76.0,63.0,30.15,NE,46,0.0,2.0,64,0.00,,,0.00,,2013-05-21 15:11:00,
2013-05-21 11:21:00,76.0,63.0,30.15,NE,46,0.0,2.0,64,0.00,,,0.00,,2013-05-21 15:21:00,
2013-05-21 11:33:00,76.0,62.0,30.16,North,360,0.0,2.0,61,0.00,,,0.00,,2013-05-21 15:33:00,
2013-05-21 11:42:00,76.0,61.0,30.15,NNE,17,0.0,3.0,60,0.00,,,0.00,,2013-05-21 15:42:00,
2013-05-21 11:53:00,76.0,61.0,30.15,NNE,17,0.0,3.0,60,0.00,,,0.00,,2013-05-21 15:53:00,
2013-05-21 12:03:00,77.0,63.0,30.15,WNW,289,0.0,1.0,61,0.00,,,0.00,,2013-05-21 16:03:00,
2013-05-21 12:13:00,76.0,62.0,30.15,SW,231,0.0,1.0,62,0.00,,,0.00,,2013-05-21 16:13:00,
2013-05-21 12:23:00,76.0,62.0,30.15,SW,231,0.0,1.0,62,0.00,,,0.00,,2013-05-21 16:23:00,
2013-05-21 12:32:00,79.0,64.0,30.15,West,281,0.0,2.0,61,0.00,,,0.00,,2013-05-21 16:32:00,
2013-05-21 12:42:00,78.0,62.0,30.15,WNW,292,0.0,1.0,57,0.00,,,0.00,,2013-05-21 16:42:00,
2013-05-21 12:53:00,78.0,62.0,30.15,WNW,292,0.0,1.0,57,0.00,,,0.00,,2013-05-21 16:53:00,
2013-05-21 13:02:00,79.0,62.0,30.15,NW,307,1.0,7.0,56,0.00,,,0.00,,2013-05-21 17:02:00,
2013-05-21 13:12:00,79.0,62.0,30.15,East,88,0.0,3.0,56,0.00,,,0.00,,2013-05-21 17:12:00,
2013-05-21 13:23:00,79.0,62.0,30.15,East,88,0.0,3.0,56,0.00,,,0.00,,2013-05-21 17:23:00,
2013-05-21 13:32:00,79.0,62.0,30.14,ENE,57,0.0,1.0,56,0.00,,,0.00,,2013-05-21 17:32:00,
2013-05-21 13:43:00,79.0,65.0,30.14,SE,134,0.0,1.0,63,0.00,,,0.00,,2013-05-21 17:43:00,
2013-05-21 13:52:00,79.0,65.0,30.14,SE,134,0.0,1.0,63,0.00,,,0.00,,2013-05-21 17:52:00,
2013-05-21 14:02:00,75.0,65.0,30.14,SSE,156,1.0,4.0,70,0.00,,,0.00,,2013-05-21 18:02:00,
2013-05-21 14:12:00,75.0,65.0,30.14,SSE,156,1.0,4.0,70,0.00,,,0.00,,2013-05-21 18:12:00,
2013-05-21 14:22:00,73.0,65.0,30.13,South,169,1.0,10.0,75,0.00,,,0.00,,2013-05-21 18:22:00,
2013-05-21 14:32:00,75.0,65.0,30.13,SSW,192,1.0,8.0,70,0.00,,,0.00,,2013-05-21 18:32:00,
2013-05-21 14:42:00,74.0,66.0,30.13,ESE,111,0.0,5.0,75,0.00,,,0.00,,2013-05-21 18:42:00,
2013-05-21 14:52:00,74.0,66.0,30.13,ESE,111,0.0,5.0,75,0.00,,,0.00,,2013-05-21 18:52:00,
2013-05-21 15:01:00,72.0,65.0,30.12,ESE,121,1.0,5.0,80,0.04,,,0.04,,2013-05-21 19:01:00,
2013-05-21 15:11:00,72.0,65.0,30.12,ESE,121,1.0,5.0,80,0.04,,,0.04,,2013-05-21 19:11:00,
2013-05-21 15:21:00,70.0,67.0,30.12,SE,141,0.0,2.0,89,0.04,,,0.04,,2013-05-21 19:21:00,
2013-05-21 15:32:00,72.0,67.0,30.11,ESE,119,1.0,8.0,84,0.04,,,0.04,,2013-05-21 19:32:00,
2013-05-21 15:42:00,72.0,67.0,30.11,ESE,119,1.0,8.0,84,0.04,,,0.04,,2013-05-21 19:42:00,
2013-05-21 15:52:00,72.0,65.0,30.11,SE,124,2.0,7.0,79,0.04,,,0.04,,2013-05-21 19:52:00,
2013-05-21 16:03:00,70.0,65.0,30.10,South,181,1.0,5.0,85,0.00,,,0.04,,2013-05-21 20:03:00,
2013-05-21 16:11:00,70.0,65.0,30.10,South,181,1.0,5.0,85,0.00,,,0.04,,2013-05-21 20:11:00,
2013-05-21 16:22:00,71.0,65.0,30.10,SE,132,0.0,6.0,81,0.00,,,0.04,,2013-05-21 20:22:00,
2013-05-21 16:32:00,70.0,62.0,30.09,SE,146,2.0,5.0,77,0.00,,,0.04,,2013-05-21 20:32:00,
2013-05-21 16:42:00,70.0,62.0,30.09,SE,146,2.0,5.0,77,0.00,,,0.04,,2013-05-21 20:42:00,
2013-05-21 16:52:00,71.0,64.0,30.09,ESE,103,0.0,3.0,78,0.00,,,0.04,,2013-05-21 20:52:00,
2013-05-21 17:02:00,72.0,64.0,30.09,ESE,120,0.0,6.0,75,0.00,,,0.04,,2013-05-21 21:02:00,
2013-05-21 17:11:00,72.0,64.0,30.09,ESE,120,0.0,6.0,75,0.00,,,0.04,,2013-05-21 21:11:00,
2013-05-21 17:21:00,71.0,65.0,30.08,South,182,3.0,7.0,80,0.00,,,0.04,,2013-05-21 21:21:00,
2013-05-21 17:33:00,69.0,63.0,30.09,SSW,193,4.0,8.0,82,0.00,,,0.04,,2013-05-21 21:33:00,
2013-05-21 17:43:00,69.0,64.0,30.08,SSE,168,2.0,9.0,83,0.00,,,0.04,,2013-05-21 21:43:00,
2013-05-21 17:54:00,69.0,64.0,30.08,SSE,168,2.0,9.0,83,0.00,,,0.04,,2013-05-21 21:54:00,
2013-05-21 18:02:00,69.0,63.0,30.08,South,184,0.0,8.0,82,0.00,,,0.04,,2013-05-21 22:02:00,
2013-05-21 18:12:00,69.0,63.0,30.08,South,184,0.0,8.0,82,0.00,,,0.04,,2013-05-21 22:12:00,
2013-05-21 18:23:00,70.0,64.0,30.08,South,184,0.0,5.0,82,0.00,,,0.04,,2013-05-21 22:23:00,
2013-05-21 18:33:00,70.0,64.0,30.08,South,184,2.0,6.0,80,0.00,,,0.04,,2013-05-21 22:33:00,
2013-05-21 18:42:00,70.0,64.0,30.08,South,184,2.0,6.0,80,0.00,,,0.04,,2013-05-21 22:42:00,
2013-05-21 18:53:00,71.0,65.0,30.07,ESE,122,2.0,7.0,81,0.00,,,0.04,,2013-05-21 22:53:00,
2013-05-21 19:02:00,69.0,63.0,30.06,South,171,2.0,7.0,82,0.00,,,0.04,,2013-05-21 23:02:00,
2013-05-21 19:12:00,69.0,63.0,30.06,South,171,2.0,7.0,82,0.00,,,0.04,,2013-05-21 23:12:00,
2013-05-21 19:22:00,69.0,64.0,30.07,South,180,1.0,6.0,83,0.00,,,0.04,,2013-05-21 23:22:00,
2013-05-21 19:32:00,68.0,63.0,30.08,South,172,0.0,3.0,85,0.00,,,0.04,,2013-05-21 23:32:00,
2013-05-21 19:42:00,68.0,63.0,30.09,South,172,0.0,1.0,84,0.00,,,0.04,,2013-05-21 23:42:00,
2013-05-21 19:52:00,68.0,63.0,30.09,South,172,0.0,1.0,84,0.00,,,0.04,,2013-05-21 23:52:00,
2013-05-21 20:01:00,68.0,63.0,30.09,South,184,0.0,1.0,85,0.00,,,0.04,,2013-05-22 00:01:00,
2013-05-21 20:11:00,67.0,63.0,30.09,South,184,0.0,2.0,87,0.00,,,0.04,,2013-05-22 00:11:00,
2013-05-21 20:21:00,67.0,63.0,30.09,South,184,0.0,2.0,87,0.00,,,0.04,,2013-05-22 00:21:00,
2013-05-21 20:32:00,66.0,63.0,30.09,South,184,3.0,5.0,89,0.00,,,0.04,,2013-05-22 00:32:00,
2013-05-21 20:41:00,66.0,63.0,30.09,South,184,3.0,5.0,89,0.00,,,0.04,,2013-05-22 00:41:00,
2013-05-21 20:52:00,66.0,63.0,30.09,South,189,4.0,7.0,91,0.00,,,0.04,,2013-05-22 00:52:00,
2013-05-21 21:01:00,65.0,63.0,30.09,SW,216,0.0,3.0,94,0.00,,,0.04,,2013-05-22 01:01:00,
2013-05-21 21:11:00,65.0,63.0,30.09,SW,216,0.0,3.0,94,0.00,,,0.04,,2013-05-22 01:11:00,
2013-05-21 21:21:00,64.0,62.0,30.09,SW,231,1.0,6.0,92,0.00,,,0.04,,2013-05-22 01:21:00,
2013-05-21 21:32:00,64.0,62.0,30.09,SW,232,0.0,2.0,92,0.00,,,0.04,,2013-05-22 01:32:00,
2013-05-21 21:42:00,64.0,62.0,30.09,SW,232,1.0,3.0,92,0.00,,,0.04,,2013-05-22 01:42:00,
2013-05-21 21:52:00,64.0,62.0,30.09,SW,232,1.0,3.0,92,0.00,,,0.04,,2013-05-22 01:52:00,
2013-05-21 22:02:00,64.0,62.0,30.10,SW,232,0.0,3.0,92,0.00,,,0.04,,2013-05-22 02:02:00,
2013-05-21 22:11:00,64.0,62.0,30.10,SW,232,0.0,3.0,92,0.00,,,0.04,,2013-05-22 02:11:00,
2013-05-21 22:21:00,64.0,61.0,30.10,SW,232,1.0,3.0,91,0.00,,,0.04,,2013-05-22 02:21:00,
2013-05-21 22:32:00,64.0,61.0,30.10,SW,232,2.0,5.0,89,0.00,,,0.04,,2013-05-22 02:32:00,
2013-05-21 22:42:00,64.0,60.0,30.10,SW,232,0.0,1.0,88,0.00,,,0.04,,2013-05-22 02:42:00,
2013-05-21 22:52:00,64.0,60.0,30.10,SW,232,0.0,1.0,88,0.00,,,0.04,,2013-05-22 02:52:00,
2013-05-21 23:01:00,64.0,61.0,30.10,WSW,256,0.0,3.0,89,0.00,,,0.04,,2013-05-22 03:01:00,
2013-05-21 23:11:00,64.0,60.0,30.10,WSW,256,0.0,1.0,87,0.00,,,0.04,,2013-05-22 03:11:00,
2013-05-21 23:21:00,64.0,60.0,30.10,WSW,256,0.0,1.0,87,0.00,,,0.04,,2013-05-22 03:21:00,
2013-05-21 23:33:00,65.0,61.0,30.11,WSW,256,0.0,1.0,87,0.00,,,0.04,,2013-05-22 03:33:00,
2013-05-21 23:43:00,65.0,61.0,30.10,WSW,256,0.0,2.0,87,0.00,,,0.04,,2013-05-22 03:43:00,
2013-05-21 23:53:00,65.0,61.0,30.10,WSW,256,0.0,2.0,87,0.00,,,0.04,,2013-05-22 03:53:00,